createdAt,value
2018-05-23T00:00:14.805Z,62.20
2018-05-23T00:01:18.919Z,62.10
2018-05-23T00:02:23.024Z,62.10
2018-05-23T00:03:27.111Z,62.00
2018-05-23T00:04:31.926Z,62.00
2018-05-23T00:05:36.188Z,62.00
2018-05-23T00:06:41.040Z,62.50
2018-05-23T00:07:46.047Z,61.80
2018-05-23T00:08:50.287Z,61.80
2018-05-23T00:09:54.535Z,62.00
2018-05-23T00:10:58.650Z,61.90
2018-05-23T00:12:02.761Z,62.00
2018-05-23T00:13:07.289Z,61.90
2018-05-23T00:14:12.279Z,62.00
2018-05-23T00:15:16.541Z,62.00
2018-05-23T00:16:20.791Z,62.10
2018-05-23T00:17:25.039Z,61.90
2018-05-23T00:18:29.328Z,62.10
2018-05-23T00:19:34.419Z,61.90
2018-05-23T00:20:38.724Z,61.90
2018-05-23T00:21:42.975Z,61.80
2018-05-23T00:22:47.987Z,62.00
2018-05-23T00:23:52.087Z,62.00
2018-05-23T00:24:56.171Z,61.90
2018-05-23T00:26:00.237Z,62.00
2018-05-23T00:27:04.587Z,62.00
2018-05-23T00:28:08.679Z,62.00
2018-05-23T00:29:12.904Z,61.90
2018-05-23T00:30:17.162Z,61.90
2018-05-23T00:31:21.385Z,62.00
2018-05-23T00:32:26.198Z,62.00
2018-05-23T00:33:30.311Z,62.00
2018-05-23T00:34:34.443Z,62.00
2018-05-23T00:35:38.501Z,62.00
2018-05-23T00:36:42.579Z,61.90
2018-05-23T00:37:47.336Z,62.20
2018-05-23T00:38:51.875Z,61.90
2018-05-23T00:39:56.303Z,61.90
2018-05-23T00:41:00.547Z,62.00
2018-05-23T00:42:04.814Z,62.10
2018-05-23T00:43:09.841Z,62.00
2018-05-23T00:44:14.841Z,61.90
2018-05-23T00:45:19.140Z,61.90
2018-05-23T00:46:23.355Z,61.90
2018-05-23T00:47:28.437Z,62.00
2018-05-23T00:48:32.727Z,62.00
2018-05-23T00:49:37.358Z,62.10
2018-05-23T00:50:41.765Z,62.20
2018-05-23T00:51:46.049Z,62.00
2018-05-23T00:52:50.335Z,62.00
2018-05-23T00:53:55.370Z,62.10
2018-05-23T00:55:09.621Z,62.10
2018-05-23T00:56:13.871Z,62.10
2018-05-23T00:57:18.177Z,62.20
2018-05-23T00:58:22.759Z,62.10
2018-05-23T00:59:27.008Z,62.20
2018-05-23T01:00:31.373Z,62.20
2018-05-23T01:01:36.228Z,62.10
2018-05-23T01:02:40.499Z,62.10
2018-05-23T01:03:44.860Z,62.20
2018-05-23T01:04:49.151Z,62.20
2018-05-23T01:05:53.566Z,62.10
2018-05-23T01:06:58.281Z,63.80
2018-05-23T01:08:02.538Z,62.30
2018-05-23T01:09:06.910Z,62.20
2018-05-23T01:10:11.200Z,62.20
2018-05-23T01:11:15.575Z,62.20
2018-05-23T01:12:19.643Z,62.10
2018-05-23T01:13:24.964Z,62.10
2018-05-23T01:14:29.148Z,62.10
2018-05-23T01:15:33.452Z,62.20
2018-05-23T01:16:37.522Z,62.10
2018-05-23T01:17:41.590Z,62.20
2018-05-23T01:18:46.412Z,62.30
2018-05-23T01:19:51.622Z,62.40
2018-05-23T01:20:56.020Z,62.40
2018-05-23T01:22:00.075Z,62.30
2018-05-23T01:23:04.197Z,62.20
2018-05-23T01:24:08.320Z,62.20
2018-05-23T01:25:12.771Z,62.20
2018-05-23T01:26:17.572Z,62.20
2018-05-23T01:27:21.642Z,62.20
2018-05-23T01:28:25.755Z,62.20
2018-05-23T01:29:29.892Z,62.20
2018-05-23T01:30:34.771Z,63.00
2018-05-23T01:31:39.183Z,62.30
2018-05-23T01:32:43.350Z,62.30
2018-05-23T01:33:47.471Z,62.40
2018-05-23T01:34:51.529Z,62.40
2018-05-23T01:35:56.351Z,62.40
2018-05-23T01:37:01.305Z,62.20
2018-05-23T01:38:05.671Z,62.40
2018-05-23T01:39:09.897Z,62.40
2018-05-23T01:40:13.976Z,62.20
2018-05-23T01:41:18.059Z,62.30
2018-05-23T01:42:22.176Z,62.30
2018-05-23T01:43:26.259Z,62.40
2018-05-23T01:44:30.391Z,62.40
2018-05-23T01:45:35.310Z,62.40
2018-05-23T01:46:39.459Z,62.30
2018-05-23T01:47:43.508Z,62.40
2018-05-23T01:48:56.408Z,62.40
2018-05-23T01:50:00.878Z,62.40
2018-05-23T01:51:05.201Z,62.30
2018-05-23T01:52:09.655Z,62.20
2018-05-23T01:53:14.644Z,62.40
2018-05-23T01:54:19.185Z,62.40
2018-05-23T01:55:24.717Z,62.30
2018-05-23T01:56:28.959Z,62.40
2018-05-23T01:57:33.295Z,62.40
2018-05-23T01:58:37.798Z,62.40
2018-05-23T01:59:42.010Z,62.50
2018-05-23T02:00:46.528Z,62.50
2018-05-23T02:01:50.596Z,62.40
2018-05-23T02:02:54.660Z,62.50
2018-05-23T02:03:58.737Z,62.50
2018-05-23T02:05:02.783Z,62.40
2018-05-23T02:06:07.620Z,62.50
2018-05-23T02:07:11.746Z,62.50
2018-05-23T02:08:15.794Z,62.40
2018-05-23T02:09:19.831Z,62.50
2018-05-23T02:10:23.999Z,62.50
2018-05-23T02:11:28.993Z,62.60
2018-05-23T02:12:33.096Z,62.60
2018-05-23T02:13:37.175Z,62.40
2018-05-23T02:14:41.203Z,62.40
2018-05-23T02:15:45.300Z,62.50
2018-05-23T02:16:49.462Z,62.40
2018-05-23T02:17:53.515Z,62.60
2018-05-23T02:18:57.589Z,62.40
2018-05-23T02:20:01.655Z,62.50
2018-05-23T02:21:06.659Z,62.40
2018-05-23T02:22:11.191Z,62.40
2018-05-23T02:23:16.167Z,63.00
2018-05-23T02:24:20.704Z,62.30
2018-05-23T02:25:24.886Z,62.50
2018-05-23T02:26:29.118Z,62.60
2018-05-23T02:27:33.438Z,62.50
2018-05-23T02:28:38.435Z,62.60
2018-05-23T02:29:42.499Z,62.60
2018-05-23T02:30:46.926Z,62.40
2018-05-23T02:31:51.400Z,62.60
2018-05-23T02:32:55.455Z,62.40
2018-05-23T02:33:59.714Z,62.40
2018-05-23T02:35:04.048Z,62.60
2018-05-23T02:36:08.567Z,62.60
2018-05-23T02:37:12.656Z,62.40
2018-05-23T02:38:16.692Z,62.70
2018-05-23T02:39:20.895Z,62.50
2018-05-23T02:40:26.879Z,63.20
2018-05-23T02:41:31.536Z,62.60
2018-05-23T02:42:35.808Z,62.60
2018-05-23T02:43:40.837Z,62.60
2018-05-23T02:44:45.032Z,62.50
2018-05-23T02:45:49.243Z,62.50
2018-05-23T02:46:54.024Z,62.60
2018-05-23T02:47:59.243Z,62.70
2018-05-23T02:49:03.449Z,62.60
2018-05-23T02:50:07.651Z,62.50
2018-05-23T02:51:11.873Z,62.80
2018-05-23T02:54:14.020Z,62.70
2018-05-23T02:55:18.244Z,62.70
2018-05-23T02:56:22.486Z,62.50
2018-05-23T02:57:26.958Z,62.70
2018-05-23T02:58:31.944Z,62.90
2018-05-23T02:59:35.982Z,62.60
2018-05-23T03:00:41.044Z,62.60
2018-05-23T03:01:45.144Z,62.50
2018-05-23T03:02:49.195Z,62.70
2018-05-23T03:03:53.422Z,62.60
2018-05-23T03:04:58.228Z,62.80
2018-05-23T03:06:02.629Z,62.60
2018-05-23T03:07:06.863Z,62.70
2018-05-23T03:08:12.053Z,62.60
2018-05-23T03:09:16.218Z,62.70
2018-05-23T03:10:20.484Z,62.70
2018-05-23T03:11:24.694Z,62.80
2018-05-23T03:12:29.680Z,62.60
2018-05-23T03:13:33.949Z,62.40
2018-05-23T03:14:38.236Z,62.60
2018-05-23T03:15:43.365Z,62.60
2018-05-23T03:16:48.340Z,62.70
2018-05-23T03:17:52.575Z,62.60
2018-05-23T03:18:56.815Z,63.30
2018-05-23T03:20:02.423Z,62.70
2018-05-23T03:21:06.644Z,62.60
2018-05-23T03:22:11.690Z,62.60
2018-05-23T03:23:15.908Z,62.70
2018-05-23T03:24:20.162Z,62.50
2018-05-23T03:25:24.361Z,62.40
2018-05-23T03:26:29.050Z,62.60
2018-05-23T03:27:33.263Z,62.70
2018-05-23T03:28:37.467Z,62.60
2018-05-23T03:29:41.682Z,62.80
2018-05-23T03:30:45.891Z,62.70
2018-05-23T03:31:50.110Z,62.60
2018-05-23T03:32:55.494Z,62.50
2018-05-23T03:33:59.764Z,62.50
2018-05-23T03:35:04.745Z,62.60
2018-05-23T03:36:08.954Z,62.60
2018-05-23T03:37:13.171Z,62.50
2018-05-23T03:38:17.371Z,63.90
2018-05-23T03:39:21.625Z,62.60
2018-05-23T03:40:25.987Z,62.80
2018-05-23T03:41:30.896Z,62.50
2018-05-23T03:42:35.094Z,62.60
2018-05-23T03:43:39.190Z,62.70
2018-05-23T03:44:43.974Z,62.80
2018-05-23T03:45:48.436Z,62.80
2018-05-23T03:46:52.737Z,62.60
2018-05-23T03:47:56.961Z,62.60
2018-05-23T03:49:01.195Z,62.70
2018-05-23T03:50:06.183Z,62.60
2018-05-23T03:51:10.735Z,62.60
2018-05-23T03:52:15.742Z,63.50
2018-05-23T03:53:19.971Z,62.70
2018-05-23T03:54:24.183Z,62.90
2018-05-23T03:55:28.302Z,62.80
2018-05-23T03:56:32.444Z,62.70
2018-05-23T03:57:36.466Z,62.80
2018-05-23T03:58:41.353Z,63.10
2018-05-23T03:59:54.259Z,63.00
2018-05-23T04:03:16.584Z,62.80
2018-05-23T04:06:31.486Z,62.80
2018-05-23T04:07:38.124Z,62.90
2018-05-23T04:08:42.633Z,62.70
2018-05-23T04:09:46.883Z,62.90
2018-05-23T04:10:51.070Z,62.90
2018-05-23T04:11:55.282Z,63.00
2018-05-23T04:12:59.487Z,63.50
2018-05-23T04:14:03.526Z,62.90
2018-05-23T04:15:07.828Z,62.80
2018-05-23T04:16:11.879Z,62.90
2018-05-23T04:17:15.919Z,62.90
2018-05-23T04:18:20.910Z,62.80
2018-05-23T04:19:24.977Z,62.80
2018-05-23T04:20:29.029Z,62.80
2018-05-23T04:21:33.561Z,62.90
2018-05-23T04:22:37.807Z,62.80
2018-05-23T04:23:42.043Z,63.00
2018-05-23T04:24:46.394Z,62.90
2018-05-23T04:25:50.530Z,62.80
2018-05-23T04:26:55.024Z,62.90
2018-05-23T04:28:00.028Z,63.00
2018-05-23T04:29:04.300Z,62.80
2018-05-23T04:30:08.468Z,62.70
2018-05-23T04:31:12.591Z,63.00
2018-05-23T04:32:16.626Z,63.00
2018-05-23T04:33:21.727Z,62.80
2018-05-23T04:34:25.778Z,62.80
2018-05-23T04:35:29.907Z,62.90
2018-05-23T04:36:33.971Z,62.90
2018-05-23T04:37:38.022Z,62.80
2018-05-23T04:38:42.063Z,62.80
2018-05-23T04:39:46.924Z,62.80
2018-05-23T04:40:51.038Z,63.50
2018-05-23T04:41:55.091Z,63.00
2018-05-23T04:42:59.866Z,62.90
2018-05-23T04:44:04.007Z,62.80
2018-05-23T04:45:08.367Z,62.90
2018-05-23T04:46:12.482Z,62.80
2018-05-23T04:47:16.507Z,62.80
2018-05-23T04:48:21.316Z,62.80
2018-05-23T04:49:25.418Z,62.90
2018-05-23T04:50:29.503Z,62.70
2018-05-23T04:51:33.949Z,62.90
2018-05-23T04:52:38.778Z,62.90
2018-05-23T04:53:42.845Z,62.90
2018-05-23T04:54:46.924Z,62.80
2018-05-23T04:55:51.045Z,62.90
2018-05-23T04:56:55.082Z,62.90
2018-05-23T04:58:00.047Z,63.20
2018-05-23T04:59:04.476Z,63.00
2018-05-23T05:00:08.707Z,63.00
2018-05-23T05:01:13.667Z,63.10
2018-05-23T05:02:17.875Z,63.00
2018-05-23T05:03:22.408Z,63.00
2018-05-23T05:04:26.609Z,63.00
2018-05-23T05:05:30.799Z,63.10
2018-05-23T05:06:34.984Z,62.90
2018-05-23T05:07:39.014Z,63.00
2018-05-23T05:08:43.034Z,62.90
2018-05-23T05:09:47.428Z,62.80
2018-05-23T05:10:51.618Z,62.90
2018-05-23T05:11:55.692Z,63.00
2018-05-23T05:12:59.898Z,63.20
2018-05-23T05:14:04.352Z,63.10
2018-05-23T05:15:08.523Z,63.20
2018-05-23T05:16:13.115Z,63.00
2018-05-23T05:17:18.106Z,63.00
2018-05-23T05:18:22.310Z,63.00
2018-05-23T05:19:26.555Z,63.20
2018-05-23T05:20:31.536Z,63.10
2018-05-23T05:21:35.760Z,63.00
2018-05-23T05:22:39.960Z,63.00
2018-05-23T05:23:44.194Z,63.00
2018-05-23T05:24:49.338Z,63.00
2018-05-23T05:25:53.655Z,63.00
2018-05-23T05:26:57.731Z,63.00
2018-05-23T05:28:02.680Z,63.00
2018-05-23T05:29:06.713Z,63.00
2018-05-23T05:30:10.784Z,63.10
2018-05-23T05:31:14.820Z,63.10
2018-05-23T05:32:18.900Z,62.90
2018-05-23T05:33:23.237Z,63.20
2018-05-23T05:34:27.305Z,63.20
2018-05-23T05:35:31.339Z,63.10
2018-05-23T05:36:35.560Z,63.10
2018-05-23T05:37:39.850Z,63.00
2018-05-23T05:38:44.105Z,63.80
2018-05-23T05:39:49.466Z,63.10
2018-05-23T05:40:53.774Z,63.10
2018-05-23T05:41:58.409Z,63.20
2018-05-23T05:43:02.625Z,63.30
2018-05-23T05:44:07.674Z,63.20
2018-05-23T05:45:11.882Z,63.10
2018-05-23T05:46:16.425Z,62.90
2018-05-23T05:47:20.667Z,63.20
2018-05-23T05:48:24.939Z,63.00
2018-05-23T05:49:29.179Z,63.10
2018-05-23T05:50:33.394Z,63.20
2018-05-23T05:51:37.602Z,63.00
2018-05-23T05:52:42.580Z,63.30
2018-05-23T05:53:46.831Z,63.20
2018-05-23T05:54:51.803Z,63.20
2018-05-23T05:55:56.018Z,63.10
2018-05-23T05:57:00.316Z,63.30
2018-05-23T05:58:04.529Z,63.30
2018-05-23T05:59:08.744Z,63.10
2018-05-23T06:00:12.979Z,63.20
2018-05-23T06:01:17.966Z,63.30
2018-05-23T06:02:22.200Z,63.90
2018-05-23T06:03:26.362Z,63.10
2018-05-23T06:04:30.414Z,63.30
2018-05-23T06:05:35.602Z,63.30
2018-05-23T06:06:39.605Z,63.20
2018-05-23T06:07:43.664Z,63.20
2018-05-23T06:08:47.840Z,63.30
2018-05-23T06:09:51.941Z,63.30
2018-05-23T06:10:55.970Z,63.20
2018-05-23T06:12:00.327Z,63.10
2018-05-23T06:13:04.370Z,63.10
2018-05-23T06:14:09.196Z,63.00
2018-05-23T06:15:14.011Z,63.20
2018-05-23T06:16:18.853Z,63.40
2018-05-23T06:17:22.915Z,63.30
2018-05-23T06:18:27.235Z,63.20
2018-05-23T06:19:31.461Z,63.30
2018-05-23T06:20:35.499Z,63.20
2018-05-23T06:21:39.546Z,63.40
2018-05-23T06:22:44.337Z,63.20
2018-05-23T06:23:48.547Z,63.20
2018-05-23T06:24:52.738Z,63.40
2018-05-23T06:25:56.946Z,63.40
2018-05-23T06:27:01.217Z,63.40
2018-05-23T06:28:05.450Z,63.20
2018-05-23T06:29:09.728Z,63.40
2018-05-23T06:30:14.203Z,63.30
2018-05-23T06:31:19.281Z,63.20
2018-05-23T06:32:23.386Z,63.40
2018-05-23T06:33:27.445Z,63.30
2018-05-23T06:34:31.549Z,63.30
2018-05-23T06:35:35.804Z,63.30
2018-05-23T06:36:40.279Z,63.30
2018-05-23T06:37:44.618Z,63.40
2018-05-23T06:38:48.879Z,63.50
2018-05-23T06:39:53.091Z,63.40
2018-05-23T06:40:57.301Z,63.40
2018-05-23T06:42:01.341Z,63.20
2018-05-23T06:43:05.446Z,63.30
2018-05-23T06:44:09.525Z,63.40
2018-05-23T06:45:13.554Z,63.30
2018-05-23T06:46:17.596Z,63.30
2018-05-23T06:47:21.684Z,64.20
2018-05-23T06:48:26.554Z,63.40
2018-05-23T06:49:31.667Z,63.30
2018-05-23T06:50:35.869Z,63.30
2018-05-23T06:51:40.849Z,63.50
2018-05-23T06:52:45.050Z,63.30
2018-05-23T06:53:50.044Z,63.40
2018-05-23T06:54:54.522Z,63.30
2018-05-23T06:55:58.786Z,63.50
2018-05-23T06:57:03.040Z,63.30
2018-05-23T06:58:07.300Z,63.50
2018-05-23T06:59:11.602Z,63.40
2018-05-23T07:00:15.651Z,63.50
2018-05-23T07:01:19.710Z,63.50
2018-05-23T07:02:23.759Z,63.40
2018-05-23T07:03:27.813Z,63.70
2018-05-23T07:04:31.858Z,63.50
2018-05-23T07:05:35.968Z,63.70
2018-05-23T07:06:40.154Z,63.60
2018-05-23T07:07:44.220Z,63.40
2018-05-23T07:08:48.274Z,63.50
2018-05-23T07:09:52.336Z,63.60
2018-05-23T07:10:57.490Z,63.50
2018-05-23T07:12:02.350Z,63.70
2018-05-23T07:13:06.787Z,63.60
2018-05-23T07:14:10.835Z,63.70
2018-05-23T07:15:14.899Z,63.50
2018-05-23T07:16:19.707Z,63.50
2018-05-23T07:17:23.915Z,63.50
2018-05-23T07:18:28.505Z,63.70
2018-05-23T07:19:32.730Z,63.60
2018-05-23T07:20:36.996Z,63.70
2018-05-23T07:21:41.226Z,63.60
2018-05-23T07:22:45.415Z,63.70
2018-05-23T07:23:50.411Z,63.70
2018-05-23T07:24:54.630Z,63.80
2018-05-23T07:25:58.905Z,63.70
2018-05-23T07:27:03.510Z,63.70
2018-05-23T07:28:08.573Z,63.70
2018-05-23T07:29:12.674Z,63.70
2018-05-23T07:30:17.126Z,63.70
2018-05-23T07:31:22.023Z,63.70
2018-05-23T07:32:26.102Z,63.50
2018-05-23T07:33:30.155Z,63.70
2018-05-23T07:34:34.294Z,63.70
2018-05-23T07:35:38.401Z,63.70
2018-05-23T07:36:43.275Z,64.50
2018-05-23T07:37:47.489Z,63.70
2018-05-23T07:38:52.411Z,63.70
2018-05-23T07:39:56.452Z,63.70
2018-05-23T07:41:00.714Z,63.80
2018-05-23T07:42:04.770Z,63.70
2018-05-23T07:43:08.806Z,63.80
2018-05-23T07:44:12.879Z,63.80
2018-05-23T07:45:17.152Z,63.70
2018-05-23T07:46:21.973Z,63.70
2018-05-23T07:47:26.748Z,63.70
2018-05-23T07:48:31.253Z,63.70
2018-05-23T07:49:36.071Z,63.70
2018-05-23T07:50:40.347Z,63.70
2018-05-23T07:51:44.558Z,63.70
2018-05-23T07:52:48.880Z,64.50
2018-05-23T07:53:53.374Z,63.80
2018-05-23T07:54:57.726Z,63.70
2018-05-23T07:56:02.139Z,63.70
2018-05-23T07:57:06.343Z,64.00
2018-05-23T07:58:10.650Z,63.90
2018-05-23T07:59:14.687Z,63.80
2018-05-23T08:00:18.852Z,63.70
2018-05-23T08:01:22.903Z,63.70
2018-05-23T08:02:27.034Z,63.90
2018-05-23T08:03:31.074Z,63.70
2018-05-23T08:04:35.907Z,63.90
2018-05-23T08:05:41.171Z,63.80
2018-05-23T08:06:45.471Z,63.80
2018-05-23T08:07:50.452Z,63.80
2018-05-23T08:08:55.457Z,63.70
2018-05-23T08:10:05.639Z,63.70
2018-05-23T08:11:11.281Z,63.80
2018-05-23T08:12:16.126Z,63.50
2018-05-23T08:13:21.560Z,63.50
2018-05-23T08:14:33.735Z,63.50
2018-05-23T08:15:41.252Z,63.50
2018-05-23T08:16:45.537Z,63.70
2018-05-23T08:17:49.767Z,63.60
2018-05-23T08:18:54.218Z,63.50
2018-05-23T08:20:00.434Z,63.50
2018-05-23T08:21:05.205Z,63.50
2018-05-23T08:22:10.621Z,63.40
2018-05-23T08:23:15.985Z,63.40
2018-05-23T08:24:20.453Z,63.40
2018-05-23T08:25:25.077Z,63.30
2018-05-23T08:26:29.963Z,63.30
2018-05-23T08:27:34.151Z,64.30
2018-05-23T08:28:38.792Z,63.60
2018-05-23T08:29:43.192Z,63.50
2018-05-23T08:30:47.256Z,63.50
2018-05-23T08:31:51.341Z,63.40
2018-05-23T08:32:55.420Z,63.40
2018-05-23T08:34:00.122Z,63.40
2018-05-23T08:35:04.249Z,63.40
2018-05-23T08:36:09.371Z,63.30
2018-05-23T08:37:14.456Z,63.20
2018-05-23T08:38:18.668Z,63.20
2018-05-23T08:39:22.906Z,63.20
2018-05-23T08:40:27.911Z,63.40
2018-05-23T08:41:32.636Z,63.40
2018-05-23T08:42:37.744Z,63.20
2018-05-23T08:43:42.011Z,63.30
2018-05-23T08:44:46.227Z,63.30
2018-05-23T08:45:50.471Z,63.30
2018-05-23T08:46:54.714Z,63.20
2018-05-23T08:47:58.841Z,63.30
2018-05-23T08:49:02.932Z,63.20
2018-05-23T08:50:07.063Z,63.20
2018-05-23T08:51:12.242Z,63.20
2018-05-23T08:52:17.231Z,63.20
2018-05-23T08:53:22.289Z,63.30
2018-05-23T08:54:26.883Z,63.30
2018-05-23T08:55:30.987Z,63.20
2018-05-23T08:56:35.091Z,63.20
2018-05-23T08:57:40.446Z,63.10
2018-05-23T08:58:45.426Z,63.10
2018-05-23T08:59:50.529Z,63.00
2018-05-23T09:00:58.180Z,63.20
2018-05-23T09:02:02.817Z,63.20
2018-05-23T09:03:07.388Z,63.10
2018-05-23T09:04:12.636Z,63.00
2018-05-23T09:05:17.300Z,63.00
2018-05-23T09:06:21.571Z,63.30
2018-05-23T09:07:25.833Z,63.20
2018-05-23T09:08:30.108Z,63.70
2018-05-23T09:09:34.712Z,62.90
2018-05-23T09:10:39.018Z,63.00
2018-05-23T09:11:43.223Z,63.00
2018-05-23T09:12:47.482Z,63.00
2018-05-23T09:13:52.483Z,63.00
2018-05-23T09:14:56.807Z,63.00
2018-05-23T09:16:01.015Z,63.00
2018-05-23T09:17:06.013Z,63.00
2018-05-23T09:18:10.288Z,63.00
2018-05-23T09:19:14.571Z,63.00
2018-05-23T09:20:18.768Z,62.90
2018-05-23T09:21:23.755Z,63.00
2018-05-23T09:22:28.018Z,63.00
2018-05-23T09:23:32.115Z,62.90
2018-05-23T09:24:36.167Z,62.70
2018-05-23T09:25:40.191Z,62.70
2018-05-23T09:26:44.336Z,62.70
2018-05-23T09:27:48.403Z,62.70
2018-05-23T09:28:53.246Z,62.60
2018-05-23T09:29:57.308Z,62.50
2018-05-23T09:31:02.116Z,62.80
2018-05-23T09:32:06.260Z,62.80
2018-05-23T09:33:10.379Z,62.70
2018-05-23T09:34:14.439Z,62.70
2018-05-23T09:35:18.535Z,62.80
2018-05-23T09:36:22.583Z,62.70
2018-05-23T09:37:26.648Z,62.60
2018-05-23T09:38:30.694Z,62.80
2018-05-23T09:39:34.761Z,62.80
2018-05-23T09:40:38.816Z,62.80
2018-05-23T09:41:42.922Z,62.70
2018-05-23T09:42:46.951Z,62.60
2018-05-23T09:43:51.140Z,62.60
2018-05-23T09:44:56.431Z,62.70
2018-05-23T09:46:00.487Z,62.70
2018-05-23T09:47:04.856Z,62.60
2018-05-23T09:48:08.919Z,62.50
2018-05-23T09:49:13.731Z,62.40
2018-05-23T09:50:17.827Z,62.40
2018-05-23T09:51:22.713Z,62.60
2018-05-23T09:52:26.818Z,62.60
2018-05-23T09:53:30.840Z,62.50
2018-05-23T09:54:35.126Z,62.60
2018-05-23T09:55:39.360Z,62.50
2018-05-23T09:56:44.918Z,62.50
2018-05-23T09:57:49.372Z,62.60
2018-05-23T09:58:53.612Z,62.50
2018-05-23T09:59:57.803Z,62.60
2018-05-23T10:01:01.959Z,62.60
2018-05-23T10:02:05.998Z,62.50
2018-05-23T10:03:30.785Z,62.70
2018-05-23T10:04:34.898Z,62.60
2018-05-23T10:05:39.076Z,62.50
2018-05-23T10:06:43.126Z,62.60
2018-05-23T10:07:48.005Z,62.40
2018-05-23T10:08:52.375Z,62.40
2018-05-23T10:09:56.762Z,62.40
2018-05-23T10:11:01.615Z,62.50
2018-05-23T10:12:05.875Z,63.20
2018-05-23T10:13:10.275Z,62.70
2018-05-23T10:14:14.512Z,62.60
2018-05-23T10:15:19.584Z,62.80
2018-05-23T10:16:23.943Z,62.60
2018-05-23T10:17:28.816Z,62.40
2018-05-23T10:18:32.922Z,62.50
2018-05-23T10:19:37.038Z,62.50
2018-05-23T10:20:41.314Z,62.60
2018-05-23T10:21:45.510Z,62.50
2018-05-23T10:22:49.711Z,62.60
2018-05-23T10:23:53.743Z,62.60
2018-05-23T10:24:57.893Z,62.60
2018-05-23T10:26:02.851Z,62.60
2018-05-23T10:27:07.084Z,62.30
2018-05-23T10:28:11.352Z,62.60
2018-05-23T10:29:16.298Z,62.40
2018-05-23T10:30:20.507Z,62.40
2018-05-23T10:31:24.867Z,62.50
2018-05-23T10:32:29.401Z,62.40
2018-05-23T10:33:33.654Z,62.50
2018-05-23T10:34:37.890Z,62.40
2018-05-23T10:35:42.901Z,62.30
2018-05-23T10:36:47.746Z,62.30
2018-05-23T10:37:51.795Z,62.20
2018-05-23T10:38:56.717Z,62.30
2018-05-23T10:40:00.816Z,62.30
2018-05-23T10:41:04.909Z,62.30
2018-05-23T10:42:09.035Z,62.30
2018-05-23T10:43:13.084Z,62.30
2018-05-23T10:44:17.267Z,62.40
2018-05-23T10:45:22.124Z,62.30
2018-05-23T10:46:26.690Z,62.20
2018-05-23T10:47:31.731Z,62.20
2018-05-23T10:48:36.223Z,62.20
2018-05-23T10:49:41.116Z,62.10
2018-05-23T10:50:45.375Z,62.10
2018-05-23T10:51:50.310Z,62.00
2018-05-23T10:52:54.405Z,62.00
2018-05-23T10:53:58.530Z,62.10
2018-05-23T10:55:02.689Z,62.20
2018-05-23T10:56:07.557Z,62.20
2018-05-23T10:57:11.700Z,62.10
2018-05-23T10:58:16.512Z,62.10
2018-05-23T10:59:20.580Z,62.00
2018-05-23T11:02:31.095Z,62.10
2018-05-23T11:03:35.932Z,61.90
2018-05-23T11:04:40.047Z,61.90
2018-05-23T11:05:45.226Z,62.00
2018-05-23T11:06:49.325Z,61.90
2018-05-23T11:11:03.825Z,62.00
2018-05-23T11:12:33.661Z,62.10
2018-05-23T11:13:37.829Z,62.00
2018-05-23T11:14:42.699Z,61.90
2018-05-23T11:15:46.778Z,61.90
2018-05-23T11:16:51.146Z,62.00
2018-05-23T11:17:56.144Z,61.90
2018-05-23T11:19:00.219Z,62.60
2018-05-23T11:20:04.447Z,61.90
2018-05-23T11:21:08.588Z,61.90
2018-05-23T11:22:13.436Z,62.80
2018-05-23T11:23:17.878Z,62.00
2018-05-23T11:24:22.073Z,61.90
2018-05-23T11:25:26.177Z,61.80
2018-05-23T11:26:30.259Z,62.00
2018-05-23T11:27:34.469Z,61.80
2018-05-23T11:28:38.553Z,62.00
2018-05-23T11:29:42.705Z,61.80
2018-05-23T11:30:46.796Z,62.00
2018-05-23T11:31:50.999Z,62.00
2018-05-23T11:32:55.098Z,62.10
2018-05-23T11:33:59.234Z,62.00
2018-05-23T11:35:03.622Z,61.90
2018-05-23T11:36:07.764Z,61.80
2018-05-23T11:37:12.835Z,62.00
2018-05-23T11:38:17.123Z,61.90
2018-05-23T11:39:21.319Z,62.00
2018-05-23T11:40:25.530Z,62.50
2018-05-23T11:41:29.871Z,61.80
2018-05-23T11:42:33.898Z,62.10
2018-05-23T11:43:38.831Z,62.10
2018-05-23T11:44:43.683Z,62.60
2018-05-23T11:45:47.705Z,61.90
2018-05-23T11:46:52.533Z,62.10
2018-05-23T11:47:56.602Z,62.00
2018-05-23T11:49:00.878Z,62.00
2018-05-23T11:50:05.800Z,61.90
2018-05-23T11:51:10.655Z,62.10
2018-05-23T11:52:14.757Z,62.00
2018-05-23T11:53:19.174Z,62.00
2018-05-23T11:54:23.269Z,62.00
2018-05-23T11:55:28.167Z,62.60
2018-05-23T11:56:33.005Z,62.00
2018-05-23T11:57:37.203Z,62.20
2018-05-23T11:58:41.420Z,62.10
2018-05-23T11:59:45.901Z,62.10
2018-05-23T12:00:50.703Z,62.20
2018-05-23T12:01:54.758Z,62.10
2018-05-23T12:02:58.946Z,62.10
2018-05-23T12:04:02.990Z,62.20
2018-05-23T12:05:07.170Z,62.20
2018-05-23T12:06:11.231Z,62.30
2018-05-23T12:07:16.101Z,62.20
2018-05-23T12:08:20.218Z,62.20
2018-05-23T12:09:24.351Z,62.30
2018-05-23T12:10:29.194Z,62.10
2018-05-23T12:11:33.270Z,62.20
2018-05-23T12:12:37.301Z,62.30
2018-05-23T12:13:41.380Z,62.20
2018-05-23T12:14:46.360Z,62.40
2018-05-23T12:15:50.806Z,62.20
2018-05-23T12:16:55.007Z,62.40
2018-05-23T12:17:59.209Z,62.30
2018-05-23T12:19:04.468Z,62.20
2018-05-23T12:20:09.744Z,62.30
2018-05-23T12:21:13.945Z,62.40
2018-05-23T12:22:18.239Z,62.30
2018-05-23T12:23:22.582Z,62.30
2018-05-23T12:24:26.832Z,62.50
2018-05-23T12:25:31.043Z,62.60
2018-05-23T12:26:35.388Z,62.50
2018-05-23T12:27:39.679Z,62.60
2018-05-23T12:28:43.888Z,62.60
2018-05-23T12:29:48.069Z,62.50
2018-05-23T12:30:52.325Z,62.40
2018-05-23T12:31:56.623Z,62.40
2018-05-23T12:33:01.007Z,62.40
2018-05-23T12:34:05.079Z,62.40
2018-05-23T12:35:09.503Z,62.60
2018-05-23T12:36:13.911Z,62.50
2018-05-23T12:37:18.351Z,62.40
2018-05-23T12:38:22.444Z,62.60
2018-05-23T12:39:26.505Z,62.70
2018-05-23T12:40:30.575Z,62.50
2018-05-23T12:41:35.218Z,62.60
2018-05-23T12:42:40.290Z,62.70
2018-05-23T12:43:44.573Z,62.70
2018-05-23T12:44:49.128Z,62.60
2018-05-23T12:45:53.960Z,62.60
2018-05-23T12:46:58.135Z,62.70
2018-05-23T12:48:02.289Z,62.80
2018-05-23T12:49:07.852Z,62.80
2018-05-23T12:50:12.279Z,62.90
2018-05-23T12:51:17.323Z,62.60
2018-05-23T12:52:21.526Z,62.70
2018-05-23T12:53:26.411Z,62.70
2018-05-23T12:54:30.755Z,62.80
2018-05-23T12:55:35.068Z,62.70
2018-05-23T12:56:39.285Z,62.70
2018-05-23T12:57:44.311Z,62.70
2018-05-23T12:58:48.627Z,62.80
2018-05-23T12:59:53.890Z,62.80
2018-05-23T13:00:58.275Z,62.80
2018-05-23T13:02:03.365Z,62.80
2018-05-23T13:03:07.579Z,62.80
2018-05-23T13:04:11.813Z,62.80
2018-05-23T13:05:16.819Z,63.00
2018-05-23T13:06:21.384Z,63.00
2018-05-23T13:07:25.425Z,62.90
2018-05-23T13:08:29.514Z,63.00
2018-05-23T13:09:33.583Z,62.90
2018-05-23T13:10:37.716Z,63.00
2018-05-23T13:11:41.775Z,63.00
2018-05-23T13:12:45.853Z,63.00
2018-05-23T13:13:49.910Z,62.80
2018-05-23T13:14:54.023Z,63.00
2018-05-23T13:15:58.840Z,63.00
2018-05-23T13:17:03.190Z,63.00
2018-05-23T13:18:08.258Z,63.00
2018-05-23T13:19:12.598Z,63.00
2018-05-23T13:20:16.848Z,63.00
2018-05-23T13:21:21.075Z,63.00
2018-05-23T13:22:25.371Z,63.10
2018-05-23T13:23:29.604Z,63.20
2018-05-23T13:24:34.108Z,63.10
2018-05-23T13:25:38.351Z,63.30
2018-05-23T13:26:43.190Z,63.10
2018-05-23T13:27:47.240Z,63.10
2018-05-23T13:28:51.284Z,63.00
2018-05-23T13:29:56.111Z,63.20
2018-05-23T13:31:00.160Z,63.20
2018-05-23T13:32:04.263Z,63.90
2018-05-23T13:33:08.332Z,63.20
2018-05-23T13:34:12.412Z,63.20
2018-05-23T13:35:17.269Z,63.20
2018-05-23T13:36:21.367Z,63.20
2018-05-23T13:37:25.465Z,63.10
2018-05-23T13:38:30.655Z,63.40
2018-05-23T13:39:35.683Z,63.40
2018-05-23T13:40:40.714Z,63.30
2018-05-23T13:41:45.810Z,63.20
2018-05-23T13:42:50.025Z,63.20
2018-05-23T13:43:54.525Z,63.30
2018-05-23T13:44:58.742Z,63.30
2018-05-23T13:46:02.996Z,63.30
2018-05-23T13:47:07.270Z,63.30
2018-05-23T13:48:12.429Z,63.50
2018-05-23T13:49:16.673Z,63.50
2018-05-23T13:50:20.891Z,63.40
2018-05-23T13:51:25.207Z,63.30
2018-05-23T13:52:30.177Z,63.50
2018-05-23T13:53:34.354Z,63.50
2018-05-23T13:54:38.459Z,63.30
2018-05-23T13:55:42.505Z,63.50
2018-05-23T13:56:46.579Z,63.50
2018-05-23T13:57:50.594Z,63.40
2018-05-23T13:58:54.634Z,63.50
2018-05-23T13:59:58.728Z,63.50
2018-05-23T14:01:03.039Z,63.40
2018-05-23T14:02:07.139Z,63.50